sensor_id;sensor_type;location;lat;lon;timestamp;pressure;altitude;pressure_sealevel;temperature;humidity
39223;BME280;24936;46.328;11.026;2022-07-21T00:01:16;94682.84;;;20.02;100.00
39223;BME280;24936;46.328;11.026;2022-07-21T00:03:41;94677.19;;;19.87;100.00
39223;BME280;24936;46.328;11.026;2022-07-21T00:06:07;94675.03;;;19.82;100.00
39223;BME280;24936;46.328;11.026;2022-07-21T00:08:32;94675.63;;;19.67;100.00
39223;BME280;24936;46.328;11.026;2022-07-21T00:10:58;94680.00;;;19.65;100.00
39223;BME280;24936;46.328;11.026;2022-07-21T00:13:23;94682.69;;;19.46;100.00
39223;BME280;24936;46.328;11.026;2022-07-21T00:15:49;94681.69;;;19.62;100.00
39223;BME280;24936;46.328;11.026;2022-07-21T00:18:15;94676.75;;;19.57;100.00
39223;BME280;24936;46.328;11.026;2022-07-21T00:20:41;94673.84;;;19.52;100.00
39223;BME280;24936;46.328;11.026;2022-07-21T00:23:06;94674.28;;;19.41;100.00
39223;BME280;24936;46.328;11.026;2022-07-21T00:25:32;94678.00;;;19.56;100.00
39223;BME280;24936;46.328;11.026;2022-07-21T00:27:57;94683.56;;;19.65;100.00
39223;BME280;24936;46.328;11.026;2022-07-21T00:30:22;94684.38;;;19.53;100.00
39223;BME280;24936;46.328;11.026;2022-07-21T00:32:48;94678.06;;;19.75;100.00
39223;BME280;24936;46.328;11.026;2022-07-21T00:35:13;94672.78;;;19.89;100.00
39223;BME280;24936;46.328;11.026;2022-07-21T00:37:38;94682.84;;;19.92;100.00
39223;BME280;24936;46.328;11.026;2022-07-21T00:40:04;94686.38;;;20.02;100.00
39223;BME280;24936;46.328;11.026;2022-07-21T00:42:30;94679.63;;;19.94;100.00
39223;BME280;24936;46.328;11.026;2022-07-21T00:44:56;94681.19;;;20.04;100.00
39223;BME280;24936;46.328;11.026;2022-07-21T00:47:22;94680.97;;;19.71;100.00
39223;BME280;24936;46.328;11.026;2022-07-21T00:49:48;94679.38;;;19.61;100.00
39223;BME280;24936;46.328;11.026;2022-07-21T00:52:14;94671.25;;;19.88;100.00
39223;BME280;24936;46.328;11.026;2022-07-21T00:54:39;94677.09;;;19.59;100.00
39223;BME280;24936;46.328;11.026;2022-07-21T00:57:05;94680.75;;;19.25;100.00
39223;BME280;24936;46.328;11.026;2022-07-21T00:59:30;94682.13;;;19.20;100.00
39223;BME280;24936;46.328;11.026;2022-07-21T01:01:55;94683.41;;;19.38;100.00
39223;BME280;24936;46.328;11.026;2022-07-21T01:04:21;94686.28;;;19.34;100.00
39223;BME280;24936;46.328;11.026;2022-07-21T01:06:46;94684.28;;;19.26;100.00
39223;BME280;24936;46.328;11.026;2022-07-21T01:09:12;94674.75;;;19.08;100.00
39223;BME280;24936;46.328;11.026;2022-07-21T01:11:37;94678.56;;;19.11;100.00
39223;BME280;24936;46.328;11.026;2022-07-21T01:14:03;94683.47;;;19.16;100.00
39223;BME280;24936;46.328;11.026;2022-07-21T01:16:28;94678.38;;;19.05;100.00
39223;BME280;24936;46.328;11.026;2022-07-21T01:18:54;94683.00;;;19.17;100.00
39223;BME280;24936;46.328;11.026;2022-07-21T01:21:26;94679.31;;;19.11;100.00
39223;BME280;24936;46.328;11.026;2022-07-21T01:23:52;94680.88;;;18.90;100.00
39223;BME280;24936;46.328;11.026;2022-07-21T01:26:17;94689.97;;;18.78;100.00
39223;BME280;24936;46.328;11.026;2022-07-21T01:28:43;94684.59;;;18.74;100.00
39223;BME280;24936;46.328;11.026;2022-07-21T01:31:08;94695.91;;;18.64;100.00
39223;BME280;24936;46.328;11.026;2022-07-21T01:33:33;94697.44;;;18.65;100.00
39223;BME280;24936;46.328;11.026;2022-07-21T01:35:59;94691.03;;;18.59;100.00
39223;BME280;24936;46.328;11.026;2022-07-21T01:38:24;94686.59;;;18.39;100.00
39223;BME280;24936;46.328;11.026;2022-07-21T01:41:09;94699.88;;;18.63;100.00
39223;BME280;24936;46.328;11.026;2022-07-21T01:43:53;94692.34;;;18.54;100.00
39223;BME280;24936;46.328;11.026;2022-07-21T01:46:18;94696.41;;;18.49;100.00
39223;BME280;24936;46.328;11.026;2022-07-21T01:48:44;94698.09;;;18.47;100.00
39223;BME280;24936;46.328;11.026;2022-07-21T01:51:09;94698.56;;;18.33;100.00
39223;BME280;24936;46.328;11.026;2022-07-21T01:53:35;94692.81;;;18.18;100.00
39223;BME280;24936;46.328;11.026;2022-07-21T01:56:00;94694.16;;;18.13;100.00
39223;BME280;24936;46.328;11.026;2022-07-21T01:58:26;94705.84;;;18.14;100.00
39223;BME280;24936;46.328;11.026;2022-07-21T02:00:51;94703.13;;;18.14;100.00
39223;BME280;24936;46.328;11.026;2022-07-21T02:03:16;94714.34;;;17.94;100.00
39223;BME280;24936;46.328;11.026;2022-07-21T02:05:41;94711.50;;;17.72;100.00
39223;BME280;24936;46.328;11.026;2022-07-21T02:08:07;94709.44;;;17.63;100.00
39223;BME280;24936;46.328;11.026;2022-07-21T02:10:32;94702.84;;;17.61;100.00
39223;BME280;24936;46.328;11.026;2022-07-21T02:12:57;94703.19;;;17.75;100.00
39223;BME280;24936;46.328;11.026;2022-07-21T02:15:23;94702.63;;;17.81;100.00
39223;BME280;24936;46.328;11.026;2022-07-21T02:17:48;94698.34;;;17.92;100.00
39223;BME280;24936;46.328;11.026;2022-07-21T02:20:13;94698.47;;;17.89;100.00
39223;BME280;24936;46.328;11.026;2022-07-21T02:22:38;94697.63;;;17.79;100.00
39223;BME280;24936;46.328;11.026;2022-07-21T02:25:04;94696.19;;;17.74;100.00
39223;BME280;24936;46.328;11.026;2022-07-21T02:27:29;94697.16;;;17.68;100.00
39223;BME280;24936;46.328;11.026;2022-07-21T02:29:54;94689.91;;;17.74;100.00
39223;BME280;24936;46.328;11.026;2022-07-21T02:32:20;94685.78;;;17.82;100.00
39223;BME280;24936;46.328;11.026;2022-07-21T02:34:45;94694.53;;;17.90;100.00
39223;BME280;24936;46.328;11.026;2022-07-21T02:37:10;94688.53;;;17.82;100.00
39223;BME280;24936;46.328;11.026;2022-07-21T02:39:36;94686.44;;;17.86;100.00
39223;BME280;24936;46.328;11.026;2022-07-21T02:42:01;94682.13;;;17.98;100.00
39223;BME280;24936;46.328;11.026;2022-07-21T02:44:26;94683.44;;;18.06;100.00
39223;BME280;24936;46.328;11.026;2022-07-21T02:46:52;94684.00;;;18.01;100.00
39223;BME280;24936;46.328;11.026;2022-07-21T02:58:26;94677.59;;;17.82;100.00
39223;BME280;24936;46.328;11.026;2022-07-21T03:00:59;94677.88;;;17.84;100.00
39223;BME280;24936;46.328;11.026;2022-07-21T03:03:26;94672.63;;;17.90;100.00
39223;BME280;24936;46.328;11.026;2022-07-21T03:05:51;94672.38;;;17.97;100.00
39223;BME280;24936;46.328;11.026;2022-07-21T03:08:17;94676.78;;;17.82;100.00
39223;BME280;24936;46.328;11.026;2022-07-21T03:10:43;94678.13;;;17.77;100.00
39223;BME280;24936;46.328;11.026;2022-07-21T03:13:08;94683.38;;;17.71;100.00
39223;BME280;24936;46.328;11.026;2022-07-21T03:15:34;94676.34;;;17.70;100.00
39223;BME280;24936;46.328;11.026;2022-07-21T03:17:59;94680.09;;;17.64;100.00
39223;BME280;24936;46.328;11.026;2022-07-21T03:20:25;94679.56;;;17.56;100.00
39223;BME280;24936;46.328;11.026;2022-07-21T03:22:51;94679.22;;;17.67;100.00
39223;BME280;24936;46.328;11.026;2022-07-21T03:25:17;94673.41;;;17.65;100.00
39223;BME280;24936;46.328;11.026;2022-07-21T03:27:43;94679.66;;;17.52;100.00
39223;BME280;24936;46.328;11.026;2022-07-21T03:30:08;94677.66;;;17.66;100.00
39223;BME280;24936;46.328;11.026;2022-07-21T03:32:34;94682.06;;;17.63;100.00
39223;BME280;24936;46.328;11.026;2022-07-21T03:35:00;94677.78;;;17.62;100.00
39223;BME280;24936;46.328;11.026;2022-07-21T03:37:26;94679.31;;;17.50;100.00
39223;BME280;24936;46.328;11.026;2022-07-21T03:39:51;94690.03;;;17.32;100.00
39223;BME280;24936;46.328;11.026;2022-07-21T03:42:16;94681.06;;;17.32;100.00
39223;BME280;24936;46.328;11.026;2022-07-21T03:44:42;94688.22;;;17.29;100.00
39223;BME280;24936;46.328;11.026;2022-07-21T03:47:07;94689.28;;;17.32;100.00
39223;BME280;24936;46.328;11.026;2022-07-21T03:49:32;94687.53;;;17.38;100.00
39223;BME280;24936;46.328;11.026;2022-07-21T03:51:58;94688.97;;;17.42;100.00
39223;BME280;24936;46.328;11.026;2022-07-21T03:54:23;94692.78;;;17.32;100.00
39223;BME280;24936;46.328;11.026;2022-07-21T03:56:48;94698.47;;;17.38;100.00
39223;BME280;24936;46.328;11.026;2022-07-21T03:59:13;94694.22;;;17.49;100.00
39223;BME280;24936;46.328;11.026;2022-07-21T04:01:39;94694.00;;;17.57;100.00
39223;BME280;24936;46.328;11.026;2022-07-21T04:04:04;94692.88;;;17.54;100.00
39223;BME280;24936;46.328;11.026;2022-07-21T04:06:30;94696.84;;;17.53;100.00
39223;BME280;24936;46.328;11.026;2022-07-21T04:08:55;94698.91;;;17.49;100.00
39223;BME280;24936;46.328;11.026;2022-07-21T04:11:20;94697.38;;;17.61;100.00
39223;BME280;24936;46.328;11.026;2022-07-21T04:13:46;94696.72;;;17.69;100.00
39223;BME280;24936;46.328;11.026;2022-07-21T04:16:11;94697.28;;;17.64;100.00
39223;BME280;24936;46.328;11.026;2022-07-21T04:18:36;94701.53;;;17.78;100.00
39223;BME280;24936;46.328;11.026;2022-07-21T04:21:02;94703.97;;;17.63;100.00
39223;BME280;24936;46.328;11.026;2022-07-21T04:23:27;94702.75;;;17.51;100.00
39223;BME280;24936;46.328;11.026;2022-07-21T04:25:52;94705.69;;;17.70;100.00
39223;BME280;24936;46.328;11.026;2022-07-21T04:28:18;94704.38;;;17.62;100.00
39223;BME280;24936;46.328;11.026;2022-07-21T04:30:43;94707.13;;;17.74;100.00
39223;BME280;24936;46.328;11.026;2022-07-21T04:33:08;94714.00;;;17.66;100.00
39223;BME280;24936;46.328;11.026;2022-07-21T04:35:34;94712.94;;;17.64;100.00
39223;BME280;24936;46.328;11.026;2022-07-21T04:38:00;94707.88;;;17.88;100.00
39223;BME280;24936;46.328;11.026;2022-07-21T04:40:26;94708.22;;;17.90;100.00
39223;BME280;24936;46.328;11.026;2022-07-21T04:42:51;94709.09;;;17.87;100.00
39223;BME280;24936;46.328;11.026;2022-07-21T04:45:16;94711.41;;;17.75;100.00
39223;BME280;24936;46.328;11.026;2022-07-21T04:47:52;94723.53;;;17.74;100.00
39223;BME280;24936;46.328;11.026;2022-07-21T04:50:19;94724.19;;;17.66;100.00
39223;BME280;24936;46.328;11.026;2022-07-21T04:52:45;94722.97;;;17.54;100.00
39223;BME280;24936;46.328;11.026;2022-07-21T04:55:11;94723.84;;;17.51;100.00
39223;BME280;24936;46.328;11.026;2022-07-21T04:57:37;94723.75;;;17.54;100.00
39223;BME280;24936;46.328;11.026;2022-07-21T05:00:03;94729.75;;;17.62;100.00
39223;BME280;24936;46.328;11.026;2022-07-21T05:02:30;94726.69;;;17.47;100.00
39223;BME280;24936;46.328;11.026;2022-07-21T05:04:55;94721.78;;;17.68;100.00
39223;BME280;24936;46.328;11.026;2022-07-21T05:07:21;94718.41;;;17.76;100.00
39223;BME280;24936;46.328;11.026;2022-07-21T05:09:46;94725.75;;;17.80;100.00
39223;BME280;24936;46.328;11.026;2022-07-21T05:12:11;94725.09;;;17.75;100.00
39223;BME280;24936;46.328;11.026;2022-07-21T05:14:36;94731.53;;;17.82;100.00
39223;BME280;24936;46.328;11.026;2022-07-21T05:17:02;94734.91;;;17.86;100.00
39223;BME280;24936;46.328;11.026;2022-07-21T05:19:27;94728.03;;;17.81;100.00
39223;BME280;24936;46.328;11.026;2022-07-21T05:21:52;94736.25;;;17.81;100.00
39223;BME280;24936;46.328;11.026;2022-07-21T05:24:18;94738.97;;;17.94;100.00
39223;BME280;24936;46.328;11.026;2022-07-21T05:26:43;94729.78;;;17.88;100.00
39223;BME280;24936;46.328;11.026;2022-07-21T05:29:08;94728.78;;;17.82;100.00
39223;BME280;24936;46.328;11.026;2022-07-21T05:31:34;94737.13;;;17.91;100.00
39223;BME280;24936;46.328;11.026;2022-07-21T05:33:59;94725.34;;;18.16;100.00
39223;BME280;24936;46.328;11.026;2022-07-21T05:36:24;94732.69;;;18.19;100.00
39223;BME280;24936;46.328;11.026;2022-07-21T05:38:50;94735.97;;;18.14;100.00
39223;BME280;24936;46.328;11.026;2022-07-21T05:41:15;94720.88;;;18.09;100.00
39223;BME280;24936;46.328;11.026;2022-07-21T05:43:40;94729.28;;;18.15;100.00
39223;BME280;24936;46.328;11.026;2022-07-21T05:46:06;94731.69;;;18.25;100.00
39223;BME280;24936;46.328;11.026;2022-07-21T05:48:31;94722.78;;;18.34;100.00
39223;BME280;24936;46.328;11.026;2022-07-21T05:50:56;94711.63;;;18.50;100.00
39223;BME280;24936;46.328;11.026;2022-07-21T05:53:21;94714.00;;;18.61;100.00
39223;BME280;24936;46.328;11.026;2022-07-21T05:55:47;94716.47;;;18.81;100.00
39223;BME280;24936;46.328;11.026;2022-07-21T05:58:13;94714.47;;;19.04;100.00
39223;BME280;24936;46.328;11.026;2022-07-21T06:00:38;94708.91;;;19.16;100.00
39223;BME280;24936;46.328;11.026;2022-07-21T06:03:04;94710.72;;;19.10;100.00
39223;BME280;24936;46.328;11.026;2022-07-21T06:05:29;94709.81;;;19.13;100.00
39223;BME280;24936;46.328;11.026;2022-07-21T06:07:54;94708.78;;;19.20;100.00
39223;BME280;24936;46.328;11.026;2022-07-21T06:10:20;94706.41;;;19.31;100.00
39223;BME280;24936;46.328;11.026;2022-07-21T06:12:45;94705.50;;;19.34;100.00
39223;BME280;24936;46.328;11.026;2022-07-21T06:15:11;94707.34;;;19.37;100.00
39223;BME280;24936;46.328;11.026;2022-07-21T06:17:42;94713.44;;;19.41;100.00
39223;BME280;24936;46.328;11.026;2022-07-21T06:20:08;94715.63;;;19.46;100.00
39223;BME280;24936;46.328;11.026;2022-07-21T06:22:34;94712.44;;;19.57;100.00
39223;BME280;24936;46.328;11.026;2022-07-21T06:25:00;94716.94;;;19.64;100.00
39223;BME280;24936;46.328;11.026;2022-07-21T06:27:25;94712.38;;;19.70;100.00
39223;BME280;24936;46.328;11.026;2022-07-21T06:29:51;94716.34;;;19.69;100.00
39223;BME280;24936;46.328;11.026;2022-07-21T06:32:16;94718.84;;;19.94;100.00
39223;BME280;24936;46.328;11.026;2022-07-21T06:34:41;94720.84;;;19.94;100.00
39223;BME280;24936;46.328;11.026;2022-07-21T06:37:07;94722.50;;;19.91;100.00
39223;BME280;24936;46.328;11.026;2022-07-21T06:39:32;94715.03;;;19.92;100.00
39223;BME280;24936;46.328;11.026;2022-07-21T06:41:57;94705.16;;;20.04;100.00
39223;BME280;24936;46.328;11.026;2022-07-21T06:44:23;94714.78;;;20.17;100.00
39223;BME280;24936;46.328;11.026;2022-07-21T06:46:50;94713.41;;;20.22;100.00
39223;BME280;24936;46.328;11.026;2022-07-21T06:49:15;94711.13;;;20.30;100.00
39223;BME280;24936;46.328;11.026;2022-07-21T06:51:40;94710.53;;;20.35;100.00
39223;BME280;24936;46.328;11.026;2022-07-21T06:54:06;94705.66;;;20.39;100.00
39223;BME280;24936;46.328;11.026;2022-07-21T06:56:31;94698.31;;;20.45;100.00
39223;BME280;24936;46.328;11.026;2022-07-21T06:58:56;94700.78;;;20.61;100.00
39223;BME280;24936;46.328;11.026;2022-07-21T07:01:21;94704.28;;;20.71;100.00
39223;BME280;24936;46.328;11.026;2022-07-21T07:03:47;94701.84;;;20.82;100.00
39223;BME280;24936;46.328;11.026;2022-07-21T07:06:12;94700.13;;;20.94;100.00
39223;BME280;24936;46.328;11.026;2022-07-21T07:08:37;94692.31;;;21.02;100.00
39223;BME280;24936;46.328;11.026;2022-07-21T07:11:04;94698.28;;;21.09;100.00
39223;BME280;24936;46.328;11.026;2022-07-21T07:13:30;94700.84;;;21.13;100.00
39223;BME280;24936;46.328;11.026;2022-07-21T07:15:55;94694.59;;;21.22;100.00
39223;BME280;24936;46.328;11.026;2022-07-21T07:18:20;94696.06;;;21.32;100.00
39223;BME280;24936;46.328;11.026;2022-07-21T07:20:48;94695.72;;;21.48;100.00
39223;BME280;24936;46.328;11.026;2022-07-21T07:23:14;94688.03;;;21.61;100.00
39223;BME280;24936;46.328;11.026;2022-07-21T07:25:39;94684.63;;;21.66;100.00
39223;BME280;24936;46.328;11.026;2022-07-21T07:28:04;94686.72;;;21.81;100.00
39223;BME280;24936;46.328;11.026;2022-07-21T07:30:30;94692.16;;;21.90;100.00
39223;BME280;24936;46.328;11.026;2022-07-21T07:32:55;94687.06;;;21.98;100.00
39223;BME280;24936;46.328;11.026;2022-07-21T07:35:21;94678.88;;;22.12;100.00
39223;BME280;24936;46.328;11.026;2022-07-21T07:37:47;94685.88;;;22.23;100.00
39223;BME280;24936;46.328;11.026;2022-07-21T07:40:14;94683.94;;;22.38;100.00
39223;BME280;24936;46.328;11.026;2022-07-21T07:42:39;94665.53;;;22.44;100.00
39223;BME280;24936;46.328;11.026;2022-07-21T07:45:05;94676.47;;;22.53;100.00
39223;BME280;24936;46.328;11.026;2022-07-21T07:47:31;94672.97;;;22.68;100.00
39223;BME280;24936;46.328;11.026;2022-07-21T07:49:56;94667.53;;;22.97;100.00
39223;BME280;24936;46.328;11.026;2022-07-21T07:52:21;94663.03;;;23.29;100.00
39223;BME280;24936;46.328;11.026;2022-07-21T07:54:47;94654.75;;;23.65;100.00
39223;BME280;24936;46.328;11.026;2022-07-21T07:57:12;94658.84;;;23.84;100.00
39223;BME280;24936;46.328;11.026;2022-07-21T07:59:37;94652.44;;;24.33;100.00
39223;BME280;24936;46.328;11.026;2022-07-21T08:02:03;94653.00;;;25.10;100.00
39223;BME280;24936;46.328;11.026;2022-07-21T08:04:28;94647.97;;;26.91;100.00
39223;BME280;24936;46.328;11.026;2022-07-21T08:06:53;94643.09;;;28.32;100.00
39223;BME280;24936;46.328;11.026;2022-07-21T08:09:19;94631.16;;;29.31;100.00
39223;BME280;24936;46.328;11.026;2022-07-21T08:11:45;94635.25;;;30.09;91.72
39223;BME280;24936;46.328;11.026;2022-07-21T08:14:12;94630.69;;;30.74;84.06
39223;BME280;24936;46.328;11.026;2022-07-21T08:16:37;94631.50;;;31.07;75.28
39223;BME280;24936;46.328;11.026;2022-07-21T08:19:02;94634.63;;;31.36;70.08
39223;BME280;24936;46.328;11.026;2022-07-21T08:21:28;94634.91;;;31.51;85.01
39223;BME280;24936;46.328;11.026;2022-07-21T08:23:55;94631.78;;;31.22;85.33
39223;BME280;24936;46.328;11.026;2022-07-21T08:26:21;94631.06;;;29.43;84.95
39223;BME280;24936;46.328;11.026;2022-07-21T08:28:47;94633.44;;;29.87;100.00
39223;BME280;24936;46.328;11.026;2022-07-21T08:31:12;94622.59;;;30.52;85.89
39223;BME280;24936;46.328;11.026;2022-07-21T08:33:37;94630.94;;;30.08;97.92
39223;BME280;24936;46.328;11.026;2022-07-21T08:36:02;94625.66;;;29.20;100.00
39223;BME280;24936;46.328;11.026;2022-07-21T08:38:28;94620.66;;;29.43;100.00
39223;BME280;24936;46.328;11.026;2022-07-21T08:40:53;94615.94;;;29.87;83.82
39223;BME280;24936;46.328;11.026;2022-07-21T08:43:19;94619.56;;;30.50;100.00
39223;BME280;24936;46.328;11.026;2022-07-21T08:45:44;94616.91;;;31.33;65.03
39223;BME280;24936;46.328;11.026;2022-07-21T08:48:09;94608.19;;;32.35;63.11
39223;BME280;24936;46.328;11.026;2022-07-21T08:50:36;94600.84;;;32.93;53.81
39223;BME280;24936;46.328;11.026;2022-07-21T08:53:02;94606.41;;;33.61;46.10
39223;BME280;24936;46.328;11.026;2022-07-21T08:55:28;94601.31;;;34.02;48.29
39223;BME280;24936;46.328;11.026;2022-07-21T08:57:53;94606.13;;;34.58;41.53
39223;BME280;24936;46.328;11.026;2022-07-21T09:00:19;94603.31;;;35.17;47.99
39223;BME280;24936;46.328;11.026;2022-07-21T09:02:44;94596.44;;;35.57;37.87
39223;BME280;24936;46.328;11.026;2022-07-21T09:05:09;94602.44;;;34.79;39.81
39223;BME280;24936;46.328;11.026;2022-07-21T09:07:48;94602.41;;;35.46;42.60
39223;BME280;24936;46.328;11.026;2022-07-21T09:10:14;94603.88;;;36.31;37.63
39223;BME280;24936;46.328;11.026;2022-07-21T09:12:50;94590.25;;;36.68;38.31
39223;BME280;24936;46.328;11.026;2022-07-21T09:15:17;94588.06;;;36.99;42.68
39223;BME280;24936;46.328;11.026;2022-07-21T09:17:43;94583.19;;;36.92;33.62
39223;BME280;24936;46.328;11.026;2022-07-21T09:20:30;94573.03;;;36.89;32.71
39223;BME280;24936;46.328;11.026;2022-07-21T09:23:28;94581.84;;;37.00;38.21
39223;BME280;24936;46.328;11.026;2022-07-21T09:25:50;94577.72;;;37.26;34.49
39223;BME280;24936;46.328;11.026;2022-07-21T09:28:20;94578.69;;;36.48;37.56
39223;BME280;24936;46.328;11.026;2022-07-21T09:30:56;94575.31;;;36.90;33.78
39223;BME280;24936;46.328;11.026;2022-07-21T09:33:29;94569.84;;;37.25;36.97
39223;BME280;24936;46.328;11.026;2022-07-21T09:38:49;94562.00;;;38.08;34.15
39223;BME280;24936;46.328;11.026;2022-07-21T09:41:16;94559.19;;;38.60;35.04
39223;BME280;24936;46.328;11.026;2022-07-21T09:43:43;94557.78;;;38.51;34.76
39223;BME280;24936;46.328;11.026;2022-07-21T09:46:11;94559.56;;;37.87;32.77
39223;BME280;24936;46.328;11.026;2022-07-21T09:48:38;94554.28;;;38.26;33.61
39223;BME280;24936;46.328;11.026;2022-07-21T09:53:58;94544.13;;;37.88;33.42
39223;BME280;24936;46.328;11.026;2022-07-21T09:56:24;94546.31;;;38.76;33.34
39223;BME280;24936;46.328;11.026;2022-07-21T09:58:53;94543.53;;;39.04;31.47
39223;BME280;24936;46.328;11.026;2022-07-21T10:01:19;94537.56;;;38.99;32.66
39223;BME280;24936;46.328;11.026;2022-07-21T10:03:45;94545.66;;;39.40;31.94
39223;BME280;24936;46.328;11.026;2022-07-21T10:06:11;94535.28;;;38.71;28.27
39223;BME280;24936;46.328;11.026;2022-07-21T10:08:37;94533.97;;;38.99;30.80
39223;BME280;24936;46.328;11.026;2022-07-21T10:11:05;94531.91;;;38.99;30.82
39223;BME280;24936;46.328;11.026;2022-07-21T10:13:30;94527.31;;;39.04;29.32
39223;BME280;24936;46.328;11.026;2022-07-21T10:15:56;94528.19;;;39.24;27.66
39223;BME280;24936;46.328;11.026;2022-07-21T10:18:22;94522.31;;;38.85;29.54
39223;BME280;24936;46.328;11.026;2022-07-21T10:20:59;94526.88;;;38.81;31.69
39223;BME280;24936;46.328;11.026;2022-07-21T10:23:33;94523.16;;;38.61;30.29
39223;BME280;24936;46.328;11.026;2022-07-21T10:25:59;94519.47;;;39.12;27.78
39223;BME280;24936;46.328;11.026;2022-07-21T10:28:27;94516.56;;;38.75;29.67
39223;BME280;24936;46.328;11.026;2022-07-21T10:30:54;94515.22;;;39.04;28.05
39223;BME280;24936;46.328;11.026;2022-07-21T10:33:21;94514.13;;;39.63;27.76
39223;BME280;24936;46.328;11.026;2022-07-21T10:35:48;94509.34;;;39.56;27.48
39223;BME280;24936;46.328;11.026;2022-07-21T10:38:27;94505.38;;;39.68;27.53
39223;BME280;24936;46.328;11.026;2022-07-21T10:40:53;94507.59;;;38.25;28.66
39223;BME280;24936;46.328;11.026;2022-07-21T10:45:50;94502.28;;;38.73;29.63
39223;BME280;24936;46.328;11.026;2022-07-21T10:50:59;94492.78;;;39.42;29.22
39223;BME280;24936;46.328;11.026;2022-07-21T10:53:25;94499.09;;;38.87;27.18
39223;BME280;24936;46.328;11.026;2022-07-21T10:55:54;94491.88;;;38.32;27.40
39223;BME280;24936;46.328;11.026;2022-07-21T11:00:57;94488.94;;;39.67;27.30
39223;BME280;24936;46.328;11.026;2022-07-21T11:08:33;94471.69;;;39.16;27.82
39223;BME280;24936;46.328;11.026;2022-07-21T11:19:01;94453.00;;;39.31;27.88
39223;BME280;24936;46.328;11.026;2022-07-21T11:21:26;94447.50;;;39.42;26.77
39223;BME280;24936;46.328;11.026;2022-07-21T11:23:51;94451.22;;;39.45;28.44
39223;BME280;24936;46.328;11.026;2022-07-21T11:26:18;94442.66;;;39.82;26.54
39223;BME280;24936;46.328;11.026;2022-07-21T11:28:44;94439.97;;;39.74;26.62
39223;BME280;24936;46.328;11.026;2022-07-21T11:31:11;94435.03;;;39.65;26.24
39223;BME280;24936;46.328;11.026;2022-07-21T11:33:39;94427.78;;;39.25;29.22
39223;BME280;24936;46.328;11.026;2022-07-21T11:36:05;94427.06;;;39.34;27.79
39223;BME280;24936;46.328;11.026;2022-07-21T11:38:31;94423.81;;;39.57;28.19
39223;BME280;24936;46.328;11.026;2022-07-21T11:43:57;94409.31;;;39.24;30.10
39223;BME280;24936;46.328;11.026;2022-07-21T11:46:23;94413.66;;;38.88;27.73
39223;BME280;24936;46.328;11.026;2022-07-21T11:48:48;94404.75;;;39.48;29.11
39223;BME280;24936;46.328;11.026;2022-07-21T11:51:13;94400.59;;;39.59;29.21
39223;BME280;24936;46.328;11.026;2022-07-21T11:53:45;94397.72;;;40.36;28.98
39223;BME280;24936;46.328;11.026;2022-07-21T11:56:15;94396.41;;;40.18;27.80
39223;BME280;24936;46.328;11.026;2022-07-21T11:58:41;94389.56;;;40.11;28.99
39223;BME280;24936;46.328;11.026;2022-07-21T12:01:07;94394.63;;;39.93;27.82
39223;BME280;24936;46.328;11.026;2022-07-21T12:03:33;94391.16;;;39.27;28.31
39223;BME280;24936;46.328;11.026;2022-07-21T12:05:59;94384.94;;;39.58;28.83
39223;BME280;24936;46.328;11.026;2022-07-21T12:08:25;94382.69;;;39.37;28.34
39223;BME280;24936;46.328;11.026;2022-07-21T12:10:50;94384.31;;;39.49;28.54
39223;BME280;24936;46.328;11.026;2022-07-21T12:13:16;94380.00;;;39.39;26.84
39223;BME280;24936;46.328;11.026;2022-07-21T12:15:41;94382.00;;;39.09;28.64
39223;BME280;24936;46.328;11.026;2022-07-21T12:18:20;94378.00;;;38.75;28.55
39223;BME280;24936;46.328;11.026;2022-07-21T12:20:46;94376.56;;;39.40;27.60
39223;BME280;24936;46.328;11.026;2022-07-21T12:25:47;94380.34;;;37.88;30.03
39223;BME280;24936;46.328;11.026;2022-07-21T12:28:13;94369.88;;;38.43;28.03
39223;BME280;24936;46.328;11.026;2022-07-21T12:30:46;94373.75;;;38.47;28.65
39223;BME280;24936;46.328;11.026;2022-07-21T12:33:16;94374.81;;;38.08;28.60
39223;BME280;24936;46.328;11.026;2022-07-21T12:35:42;94362.59;;;38.86;29.38
39223;BME280;24936;46.328;11.026;2022-07-21T12:38:09;94364.72;;;36.93;29.84
39223;BME280;24936;46.328;11.026;2022-07-21T12:40:36;94362.81;;;35.09;33.84
39223;BME280;24936;46.328;11.026;2022-07-21T12:43:03;94356.63;;;36.22;32.20
39223;BME280;24936;46.328;11.026;2022-07-21T12:45:28;94350.38;;;37.58;31.98
39223;BME280;24936;46.328;11.026;2022-07-21T12:48:09;94351.03;;;38.01;30.25
39223;BME280;24936;46.328;11.026;2022-07-21T12:50:35;94350.94;;;38.36;30.23
39223;BME280;24936;46.328;11.026;2022-07-21T12:53:03;94340.59;;;38.31;29.81
39223;BME280;24936;46.328;11.026;2022-07-21T12:55:29;94343.88;;;38.00;27.56
39223;BME280;24936;46.328;11.026;2022-07-21T12:57:54;94338.66;;;37.79;28.85
39223;BME280;24936;46.328;11.026;2022-07-21T13:00:20;94335.72;;;38.04;29.32
39223;BME280;24936;46.328;11.026;2022-07-21T13:02:47;94337.44;;;38.17;28.93
39223;BME280;24936;46.328;11.026;2022-07-21T13:05:13;94341.88;;;37.93;29.17
39223;BME280;24936;46.328;11.026;2022-07-21T13:07:38;94336.44;;;37.60;29.72
39223;BME280;24936;46.328;11.026;2022-07-21T13:10:03;94326.88;;;37.73;30.46
39223;BME280;24936;46.328;11.026;2022-07-21T13:12:29;94322.72;;;37.39;29.96
39223;BME280;24936;46.328;11.026;2022-07-21T13:14:54;94327.72;;;37.31;28.75
39223;BME280;24936;46.328;11.026;2022-07-21T13:17:19;94318.22;;;37.44;28.70
39223;BME280;24936;46.328;11.026;2022-07-21T13:19:45;94310.81;;;37.14;28.73